Weather Forecast for Al Maktoum Airport  
Friday, October 20, 2017 (19:33 UTC)
Al Maktoum International Airport
Last Updated: 20-Oct-2017 (19:32Z)
Wind Dir/Speed: SSE at 03 kt
Temperature: 27.6°C
Rel. Humidity: 66 %
Pressure: 1012.2 hPa
Visibility: 10000 m
  • METAR OMDW 201930Z 15005KT CAVOK 27/21 Q1012 NOSIG
DWC AIRPORT WEATHER FORECAST FOR 30 HOUR:
DWC TAF:
TAF OMDW 201556Z 2018/2200 33010KT 8000 NSC 
 BECMG 2018/2020 17005KT 
 PROB30 2100/2105 4000 HZ 
 BECMG 2108/2110 33014KT 
 BECMG 2116/2118 12005KT=
VALID FROM:
2017-10-20 18:00Z
VALID TILL:
2017-10-22 00:00Z
SURFACE WIND:
NW'LY 10KT

BECOMING S'LY 05KT FROM 1800Z-2000Z TODAY

BECOMING NW'LY 14KT FROM 0800Z-1000Z SATURDAY

BECOMING SE'LY 05KT FROM 1600Z-1800Z SATURDAY.
VISIBILITY:
07-10 KM,
30% PROBABILITY OF 4000 M BETWEEN 0000Z-0500Z SATURDAY.
WEATHER:
FINE,
30% PROBABILITY OF HAZE BETWEEN 0000Z-0500Z SATURDAY.
CLOUD:
NIL SIGNIFICANT.
TEMPERATURE:
MIN TEMPERATURE 23°C AROUND 0230Z SATURDAY

MAX TEMPERATURE 36°C AROUND 0900Z SATURDAY.
HUMIDITY:
MAX HUMIDITY 85% AROUND 0230Z SATURDAY

MIN HUMIDITY 25% AROUND 0900Z SATURDAY.
WIND SHEAR:
NIL SIGNIFICANT.
TEMPERATURE INVERSION:
RISK OF 08°C SURFACE TEMPERATURE INVERSION BETWEEN 0000Z-0330Z SATURDAY.
COMMENTS:
NIL.